Time;durP1;ratioP1;P1;durP2;ratioP2;P2;SDS_P1;SDS_P2;PMS_P1;PMS_P2;Temp;Humidity;BMP_temperature;BMP_pressure;BME280_temperature;BME280_humidity;BME280_pressure;Samples;Min_cycle;Max_cycle;Signal;HPM_P1;HPM_P2
2023/02/18 00:01:51;;;;;;;4.43;1.80;;;8.00;99.90;;;;;;4920553;29;20676;-79
2023/02/18 00:04:18;;;;;;;5.40;1.80;;;8.00;99.90;;;;;;4925829;29;20561;-77
2023/02/18 00:06:45;;;;;;;4.63;1.50;;;7.90;99.90;;;;;;4938154;29;20223;-79
2023/02/18 00:09:12;;;;;;;4.50;1.50;;;7.80;99.90;;;;;;4936073;29;20194;-80
2023/02/18 00:11:39;;;;;;;6.33;1.67;;;7.70;99.90;;;;;;4936059;29;20204;-77
2023/02/18 00:14:10;;;;;;;5.23;1.60;;;7.60;99.90;;;;;;4937506;29;20221;-80
2023/02/18 00:16:38;;;;;;;6.33;1.50;;;7.50;99.90;;;;;;4920536;29;20204;-79
2023/02/18 00:19:10;;;;;;;8.03;1.93;;;7.60;99.90;;;;;;4939903;29;20242;-80
2023/02/18 00:21:37;;;;;;;6.97;1.57;;;7.50;99.90;;;;;;4936043;29;20217;-76
2023/02/18 00:24:05;;;;;;;5.20;1.40;;;7.40;99.90;;;;;;4936444;29;20197;-80
2023/02/18 00:26:33;;;;;;;3.57;1.57;;;7.40;99.90;;;;;;4933920;29;20221;-78
2023/02/18 00:29:00;;;;;;;6.40;1.63;;;7.30;99.90;;;;;;4919696;29;20213;-77
2023/02/18 00:31:29;;;;;;;5.47;1.53;;;7.30;99.90;;;;;;4919743;29;20670;-78
2023/02/18 00:33:57;;;;;;;5.17;1.50;;;7.30;99.90;;;;;;4949077;28;20236;-76
2023/02/18 00:36:25;;;;;;;5.60;1.50;;;7.30;99.90;;;;;;4942345;28;20212;-75
2023/02/18 00:39:02;;;;;;;6.40;2.27;;;7.20;99.90;;;;;;4935722;29;20261;-77
2023/02/18 00:41:31;;;;;;;4.97;1.60;;;7.20;99.90;;;;;;4919588;29;20569;-81
2023/02/18 00:44:04;;;;;;;5.80;1.90;;;7.20;99.90;;;;;;4957709;28;20697;-80
2023/02/18 00:46:33;;;;;;;8.23;1.60;;;7.30;99.90;;;;;;4907341;29;20205;-82
2023/02/18 00:49:00;;;;;;;7.00;1.70;;;7.30;99.90;;;;;;4919653;29;20246;-76
2023/02/18 00:51:27;;;;;;;8.70;2.10;;;7.30;99.90;;;;;;4919550;29;20206;-75
2023/02/18 00:53:56;;;;;;;7.30;1.97;;;7.40;99.90;;;;;;4951441;29;20703;-77
2023/02/18 00:56:23;;;;;;;10.67;1.60;;;7.40;99.90;;;;;;4919572;29;20215;-76
2023/02/18 00:58:50;;;;;;;7.33;1.50;;;7.30;99.90;;;;;;4935004;29;20198;-76
2023/02/18 01:01:19;;;;;;;6.03;1.80;;;7.40;99.90;;;;;;4936173;29;20213;-76
2023/02/18 01:03:46;;;;;;;6.40;1.50;;;7.40;99.90;;;;;;4935841;29;20719;-78
2023/02/18 01:06:13;;;;;;;6.20;1.90;;;7.40;99.90;;;;;;4936242;29;20195;-77
2023/02/18 01:08:41;;;;;;;6.57;1.40;;;7.40;99.90;;;;;;4934938;29;20205;-76
2023/02/18 01:11:10;;;;;;;7.77;1.57;;;7.30;99.90;;;;;;4934928;29;20721;-75
2023/02/18 01:13:37;;;;;;;5.43;1.40;;;7.30;99.90;;;;;;4938898;29;20556;-76
2023/02/18 01:16:04;;;;;;;6.57;1.40;;;7.20;99.90;;;;;;4937746;29;20206;-76
2023/02/18 01:18:32;;;;;;;4.40;1.47;;;7.20;99.90;;;;;;4918957;29;20216;-76
2023/02/18 01:20:59;;;;;;;4.63;1.40;;;7.20;99.90;;;;;;4919128;29;20198;-76
2023/02/18 01:23:27;;;;;;;6.13;1.57;;;7.20;99.90;;;;;;4918896;29;20713;-77
2023/02/18 01:25:56;;;;;;;6.93;1.60;;;7.20;99.90;;;;;;4950541;29;20210;-77
2023/02/18 01:28:26;;;;;;;6.50;1.53;;;7.20;99.90;;;;;;4950261;29;20223;-78
2023/02/18 01:30:54;;;;;;;7.37;1.60;;;7.20;99.90;;;;;;4950354;29;20214;-77
2023/02/18 01:33:21;;;;;;;4.60;1.57;;;7.20;99.90;;;;;;4934421;29;20705;-76
2023/02/18 01:35:48;;;;;;;6.17;1.70;;;7.20;99.90;;;;;;4918588;29;20203;-77
2023/02/18 01:38:15;;;;;;;6.33;1.77;;;7.20;99.90;;;;;;4934447;29;20315;-76
2023/02/18 01:40:53;;;;;;;7.50;1.87;;;7.20;99.90;;;;;;4918689;29;20645;-76
2023/02/18 01:43:20;;;;;;;6.90;1.53;;;7.20;99.90;;;;;;4918921;29;20707;-77
2023/02/18 01:46:11;;;;;;;7.57;1.80;;;7.20;99.90;;;;;;4927253;29;20210;-77
2023/02/18 01:48:41;;;;;;;6.40;1.37;;;7.20;99.90;;;;;;4918167;29;20324;-78
2023/02/18 01:51:16;;;;;;;6.00;1.33;;;7.20;99.90;;;;;;4950164;29;20648;-75
2023/02/18 01:53:59;;;;;;;6.93;1.40;;;7.20;99.90;;;;;;4943408;28;20204;-75
2023/02/18 01:56:33;;;;;;;7.60;1.50;;;7.10;99.90;;;;;;4935728;29;20201;-74
2023/02/18 01:59:03;;;;;;;3.93;1.23;;;7.10;99.90;;;;;;4918422;29;20205;-75
2023/02/18 02:01:31;;;;;;;6.30;1.57;;;7.10;99.90;;;;;;4934134;29;20199;-74
2023/02/18 02:03:58;;;;;;;6.10;2.07;;;7.10;99.90;;;;;;4918125;29;20542;-74
2023/02/18 02:06:25;;;;;;;4.47;1.40;;;7.10;99.90;;;;;;4934096;29;20267;-75
2023/02/18 02:08:55;;;;;;;9.47;1.60;;;7.00;99.90;;;;;;4918441;29;20205;-75
2023/02/18 02:11:46;;;;;;;8.07;1.63;;;7.10;99.90;;;;;;4918463;29;20200;-77
2023/02/18 02:14:31;;;;;;;6.63;1.70;;;7.10;99.90;;;;;;4945310;28;20218;-78
2023/02/18 02:17:09;;;;;;;8.13;1.60;;;7.00;99.90;;;;;;4925436;29;20205;-75
2023/02/18 02:20:00;;;;;;;7.87;1.43;;;7.00;99.90;;;;;;4915472;29;20192;-74
2023/02/18 02:23:08;;;;;;;6.60;1.70;;;7.00;99.90;;;;;;4944888;29;20237;-75
2023/02/18 02:26:30;;;;;;;7.80;1.60;;;7.00;99.90;;;;;;4914736;29;20283;-74
2023/02/18 02:29:00;;;;;;;9.67;2.00;;;7.00;99.90;;;;;;4839399;29;20228;-73
2023/02/18 02:31:40;;;;;;;7.77;1.60;;;7.00;99.90;;;;;;4854248;29;20226;-72
2023/02/18 02:34:33;;;;;;;8.17;1.70;;;6.90;99.90;;;;;;4854684;29;20251;-72
2023/02/18 02:37:09;;;;;;;5.47;1.50;;;6.90;99.90;;;;;;4851984;29;20221;-76
2023/02/18 02:39:54;;;;;;;7.13;1.43;;;6.90;99.90;;;;;;4839214;29;20227;-75
2023/02/18 02:42:40;;;;;;;7.80;1.60;;;6.90;99.90;;;;;;4857935;29;20600;-76
2023/02/18 02:46:13;;;;;;;7.83;1.70;;;6.90;99.90;;;;;;4872742;29;20695;-74
2023/02/18 02:48:47;;;;;;;11.77;2.70;;;6.80;99.90;;;;;;4845518;29;20372;-75
2023/02/18 02:51:14;;;;;;;7.73;1.60;;;6.80;99.90;;;;;;4842101;29;20206;-77
2023/02/18 02:53:43;;;;;;;7.57;1.93;;;6.70;99.90;;;;;;4857425;29;20579;-75
2023/02/18 02:56:19;;;;;;;10.90;1.90;;;6.70;99.90;;;;;;4857411;29;20242;-75
2023/02/18 02:59:01;;;;;;;7.03;1.67;;;6.70;99.90;;;;;;4857510;29;20212;-72
2023/02/18 03:01:57;;;;;;;10.47;1.97;;;6.60;99.90;;;;;;4852171;29;20212;-72
2023/02/18 03:04:56;;;;;;;9.87;2.37;;;6.60;99.90;;;;;;4929856;29;20205;-72
2023/02/18 03:07:31;;;;;;;12.77;1.70;;;6.60;99.90;;;;;;4913607;29;20212;-73
2023/02/18 03:10:26;;;;;;;14.43;2.03;;;6.60;99.90;;;;;;4897989;29;20203;-74
2023/02/18 03:13:08;;;;;;;5.93;1.47;;;6.60;99.90;;;;;;4913567;29;20325;-73
2023/02/18 03:15:47;;;;;;;11.50;1.80;;;6.60;99.90;;;;;;4929036;29;20209;-73
2023/02/18 03:18:26;;;;;;;9.27;1.67;;;6.60;99.90;;;;;;4897327;29;20226;-74
2023/02/18 03:20:58;;;;;;;9.67;1.70;;;6.50;99.90;;;;;;4897980;29;20222;-73
2023/02/18 03:23:31;;;;;;;10.87;1.80;;;6.50;99.90;;;;;;4913381;29;20222;-73
2023/02/18 03:25:59;;;;;;;6.17;1.83;;;6.50;99.90;;;;;;4913367;29;20211;-72
2023/02/18 03:28:30;;;;;;;9.50;2.03;;;6.40;99.90;;;;;;4913465;29;20209;-73
2023/02/18 03:31:02;;;;;;;9.27;1.70;;;6.40;99.90;;;;;;4914017;29;20222;-75
2023/02/18 03:33:38;;;;;;;7.40;1.77;;;6.40;99.90;;;;;;4917229;29;20305;-73
2023/02/18 03:36:06;;;;;;;8.97;1.80;;;6.40;99.90;;;;;;4916831;29;20209;-73
2023/02/18 03:38:46;;;;;;;8.97;2.57;;;6.30;99.90;;;;;;4900743;29;20244;-74
2023/02/18 03:41:13;;;;;;;8.63;1.90;;;6.30;99.90;;;;;;4916975;29;20590;-73
2023/02/18 03:43:51;;;;;;;12.37;2.10;;;6.30;99.90;;;;;;4904510;29;20237;-76
2023/02/18 03:46:18;;;;;;;5.60;1.50;;;6.30;99.90;;;;;;4952540;29;20621;-74
2023/02/18 03:48:45;;;;;;;8.40;1.70;;;6.30;99.90;;;;;;4937815;29;20249;-74
2023/02/18 03:51:12;;;;;;;5.97;1.73;;;6.20;99.90;;;;;;4937936;29;20612;-75
2023/02/18 03:53:39;;;;;;;9.67;1.90;;;6.20;99.90;;;;;;4926998;29;20301;-74
2023/02/18 03:56:06;;;;;;;9.87;1.63;;;6.20;99.90;;;;;;4937753;29;20280;-73
2023/02/18 03:58:34;;;;;;;9.70;1.87;;;6.20;99.90;;;;;;4936743;29;20234;-76
2023/02/18 04:01:01;;;;;;;6.40;1.63;;;6.20;99.90;;;;;;4936405;29;20213;-73
2023/02/18 04:03:27;;;;;;;10.27;1.73;;;6.10;99.90;;;;;;4952473;29;20237;-72
2023/02/18 04:05:54;;;;;;;11.37;2.10;;;6.10;99.90;;;;;;4935768;29;20248;-75
2023/02/18 04:08:21;;;;;;;10.23;2.10;;;6.10;99.90;;;;;;4952302;29;20222;-74
2023/02/18 04:10:48;;;;;;;7.07;1.60;;;6.10;99.90;;;;;;4926723;29;20203;-74
2023/02/18 04:13:16;;;;;;;9.63;1.77;;;6.10;99.90;;;;;;4937458;29;20460;-75
2023/02/18 04:15:44;;;;;;;6.13;1.60;;;6.10;99.90;;;;;;4920079;29;20300;-74
2023/02/18 04:18:11;;;;;;;9.83;1.90;;;6.00;99.90;;;;;;4937511;29;20201;-74
2023/02/18 04:20:38;;;;;;;8.97;2.37;;;6.10;99.90;;;;;;4937730;29;20198;-75
2023/02/18 04:23:05;;;;;;;9.20;1.80;;;6.00;99.90;;;;;;4936129;29;20246;-72
2023/02/18 04:25:32;;;;;;;8.27;1.87;;;6.00;99.90;;;;;;4935917;29;20206;-73
2023/02/18 04:27:58;;;;;;;8.20;2.27;;;6.00;99.90;;;;;;4923282;29;20654;-72
2023/02/18 04:30:26;;;;;;;8.93;1.60;;;6.00;99.90;;;;;;4937178;29;20211;-73
2023/02/18 04:32:53;;;;;;;7.73;2.10;;;6.00;99.90;;;;;;4920166;29;20241;-73
2023/02/18 04:35:20;;;;;;;7.37;1.80;;;6.00;99.90;;;;;;4947463;29;20208;-71
2023/02/18 04:37:47;;;;;;;9.37;1.80;;;6.00;99.90;;;;;;4935967;29;20209;-73
2023/02/18 04:40:14;;;;;;;8.80;2.30;;;6.00;99.90;;;;;;4935852;29;20197;-74
2023/02/18 04:42:41;;;;;;;10.37;2.17;;;5.90;99.90;;;;;;4935077;29;20230;-72
2023/02/18 04:45:08;;;;;;;8.33;1.60;;;5.90;99.90;;;;;;4935666;29;20222;-70
2023/02/18 04:47:35;;;;;;;10.60;1.90;;;5.90;99.90;;;;;;4922293;29;20199;-74
2023/02/18 04:50:03;;;;;;;8.23;1.77;;;5.90;99.90;;;;;;4919527;29;20295;-75
2023/02/18 04:52:29;;;;;;;9.17;1.70;;;5.90;99.90;;;;;;4937024;29;20220;-73
2023/02/18 04:54:56;;;;;;;8.47;1.80;;;5.90;99.90;;;;;;4932262;29;20210;-73
2023/02/18 04:57:23;;;;;;;7.33;1.73;;;5.90;99.90;;;;;;4933026;29;20557;-73
2023/02/18 04:59:50;;;;;;;6.77;1.70;;;5.90;99.90;;;;;;4932372;29;20198;-73
2023/02/18 05:02:17;;;;;;;10.37;1.87;;;5.90;99.90;;;;;;4932060;29;20206;-73
2023/02/18 05:04:43;;;;;;;10.77;2.00;;;5.90;99.90;;;;;;4900538;29;20213;-71
2023/02/18 05:07:10;;;;;;;8.37;1.63;;;5.90;99.90;;;;;;4948207;29;20212;-73
2023/02/18 05:09:37;;;;;;;12.10;2.03;;;5.90;99.90;;;;;;4936474;29;20747;-74
2023/02/18 05:12:05;;;;;;;7.07;1.60;;;5.90;99.90;;;;;;4935050;29;20215;-72
2023/02/18 05:14:32;;;;;;;10.80;1.80;;;5.80;99.90;;;;;;4935370;29;20209;-71
2023/02/18 05:16:59;;;;;;;5.23;1.33;;;5.80;99.90;;;;;;4936575;29;20280;-73
2023/02/18 05:19:25;;;;;;;7.37;1.60;;;5.80;99.90;;;;;;4936082;29;20686;-73
2023/02/18 05:21:52;;;;;;;13.57;1.93;;;5.80;99.90;;;;;;4935040;29;20213;-73
2023/02/18 05:24:19;;;;;;;9.10;2.10;;;5.90;99.90;;;;;;4936004;29;20222;-73
2023/02/18 05:26:46;;;;;;;7.73;1.60;;;5.80;99.90;;;;;;4936060;29;20199;-72
2023/02/18 05:29:13;;;;;;;7.13;1.50;;;5.80;99.90;;;;;;4918926;29;20267;-72
2023/02/18 05:31:40;;;;;;;5.83;1.60;;;5.80;99.90;;;;;;4918843;29;20282;-73
2023/02/18 05:34:07;;;;;;;8.20;1.80;;;5.80;99.90;;;;;;4919145;29;20207;-73
2023/02/18 05:36:33;;;;;;;8.13;1.80;;;5.80;99.90;;;;;;4934938;29;20632;-74
2023/02/18 05:39:00;;;;;;;7.87;1.67;;;5.80;99.90;;;;;;4918842;29;20308;-74
2023/02/18 05:41:27;;;;;;;10.40;1.83;;;5.80;99.90;;;;;;4919177;29;20732;-73
2023/02/18 05:46:39;;;;;;;11.00;2.13;;;5.80;99.90;;;;;;4950467;29;20659;-73
2023/02/18 05:49:06;;;;;;;11.77;1.80;;;5.90;99.90;;;;;;4934248;29;20288;-72
2023/02/18 05:51:33;;;;;;;10.20;1.80;;;5.80;99.90;;;;;;4935704;29;20730;-73
2023/02/18 05:54:00;;;;;;;10.93;2.03;;;5.80;99.90;;;;;;4918282;29;20212;-74
2023/02/18 05:56:27;;;;;;;10.53;1.80;;;5.80;99.90;;;;;;4934554;29;20233;-74
2023/02/18 05:58:54;;;;;;;7.90;1.80;;;5.80;99.90;;;;;;4918307;29;20204;-73
2023/02/18 06:01:20;;;;;;;10.63;1.77;;;5.80;99.90;;;;;;4934644;29;20203;-74
2023/02/18 06:03:47;;;;;;;10.80;2.30;;;5.80;99.90;;;;;;4933150;29;20264;-73
2023/02/18 06:06:14;;;;;;;8.80;1.70;;;5.80;99.90;;;;;;4934083;29;20198;-74
2023/02/18 06:08:41;;;;;;;12.07;1.90;;;5.80;99.90;;;;;;4934682;29;20211;-74
2023/02/18 06:11:08;;;;;;;5.83;1.70;;;5.80;99.90;;;;;;4935549;29;20195;-74
2023/02/18 06:13:35;;;;;;;6.50;1.70;;;5.80;99.90;;;;;;4950087;29;20221;-74
2023/02/18 06:16:02;;;;;;;9.13;1.83;;;5.90;99.90;;;;;;4934002;29;20209;-75
2023/02/18 06:18:28;;;;;;;7.17;1.87;;;5.90;99.90;;;;;;4949927;29;20201;-74
2023/02/18 06:20:55;;;;;;;8.20;1.90;;;5.80;99.90;;;;;;4949275;29;20225;-71
2023/02/18 06:23:22;;;;;;;9.07;1.90;;;5.90;99.90;;;;;;4933371;29;20224;-72
2023/02/18 06:25:49;;;;;;;9.13;1.43;;;5.90;99.90;;;;;;4944434;29;20209;-71
2023/02/18 06:28:17;;;;;;;8.37;1.90;;;5.90;99.90;;;;;;4935110;29;20199;-72
2023/02/18 06:30:44;;;;;;;5.70;1.67;;;5.90;99.90;;;;;;4949912;29;20291;-72
2023/02/18 06:33:11;;;;;;;8.93;1.90;;;5.90;99.90;;;;;;4917979;29;20200;-73
2023/02/18 06:35:38;;;;;;;11.10;1.73;;;5.90;99.90;;;;;;4935275;29;20203;-72
2023/02/18 06:38:05;;;;;;;9.33;1.80;;;5.90;99.90;;;;;;4918322;29;20208;-72
2023/02/18 06:40:32;;;;;;;8.53;1.73;;;5.90;99.90;;;;;;4918242;29;20214;-71
2023/02/18 06:42:59;;;;;;;6.77;1.63;;;5.90;99.90;;;;;;4917893;29;20214;-71
2023/02/18 06:45:26;;;;;;;6.57;1.60;;;5.90;99.90;;;;;;4935178;29;20289;-79
2023/02/18 06:47:52;;;;;;;8.90;1.80;;;5.90;99.90;;;;;;4917777;29;20237;-73
2023/02/18 06:50:19;;;;;;;7.70;2.00;;;5.90;99.90;;;;;;4918033;29;20688;-71
2023/02/18 06:52:46;;;;;;;8.50;1.90;;;5.90;99.90;;;;;;4917420;29;20201;-70
2023/02/18 06:55:13;;;;;;;7.07;1.63;;;5.90;99.90;;;;;;4928872;29;20206;-72
2023/02/18 06:57:40;;;;;;;10.63;2.03;;;5.90;99.90;;;;;;4949653;29;20676;-73
2023/02/18 07:00:07;;;;;;;8.83;1.90;;;5.90;99.90;;;;;;4935075;29;20218;-75
2023/02/18 07:02:34;;;;;;;8.90;1.80;;;5.90;99.90;;;;;;4920569;29;20205;-75
2023/02/18 07:05:01;;;;;;;7.83;1.83;;;6.00;99.90;;;;;;4917754;29;20716;-74
2023/02/18 07:07:28;;;;;;;9.17;1.90;;;5.90;99.90;;;;;;4921160;29;20199;-75
2023/02/18 07:09:55;;;;;;;8.50;1.77;;;6.00;99.90;;;;;;4921695;29;20205;-74
2023/02/18 07:12:21;;;;;;;12.10;1.70;;;6.00;99.90;;;;;;4926672;29;20223;-74
2023/02/18 07:14:48;;;;;;;7.63;2.00;;;6.00;99.90;;;;;;4927734;29;20200;-73
2023/02/18 07:17:15;;;;;;;9.63;1.93;;;6.00;99.90;;;;;;4949969;29;20210;-72
2023/02/18 07:19:42;;;;;;;7.03;1.97;;;6.00;99.90;;;;;;4937484;29;20252;-74
2023/02/18 07:22:09;;;;;;;6.70;1.63;;;5.90;99.90;;;;;;4923565;29;20207;-71
2023/02/18 07:24:36;;;;;;;10.43;2.30;;;6.00;99.90;;;;;;4938217;29;20214;-73
2023/02/18 07:27:02;;;;;;;5.23;1.63;;;6.00;99.90;;;;;;4921375;29;20201;-75
2023/02/18 07:29:29;;;;;;;12.10;1.60;;;6.00;99.90;;;;;;4936838;29;20207;-72
2023/02/18 07:31:56;;;;;;;8.30;2.03;;;6.00;99.90;;;;;;4921021;29;20626;-72
2023/02/18 07:34:24;;;;;;;8.53;2.33;;;6.00;99.90;;;;;;4932644;29;20215;-73
2023/02/18 07:36:51;;;;;;;10.80;2.43;;;5.90;99.90;;;;;;4936774;29;20236;-70
2023/02/18 07:39:19;;;;;;;10.67;2.20;;;6.00;99.90;;;;;;4938049;29;20662;-74
2023/02/18 07:41:47;;;;;;;8.10;2.30;;;6.10;99.90;;;;;;4938142;29;20197;-73
2023/02/18 07:44:14;;;;;;;8.40;1.87;;;6.10;99.90;;;;;;4936486;29;20216;-73
2023/02/18 07:46:41;;;;;;;9.20;1.70;;;6.10;99.90;;;;;;4936511;29;20197;-72
2023/02/18 07:49:08;;;;;;;8.03;2.30;;;6.20;99.90;;;;;;4952409;29;20232;-71
2023/02/18 07:51:37;;;;;;;7.33;2.07;;;6.30;99.90;;;;;;4937992;29;20191;-72
2023/02/18 07:54:04;;;;;;;10.40;2.10;;;6.30;99.90;;;;;;4952387;28;20695;-73
2023/02/18 07:56:31;;;;;;;11.37;1.80;;;6.30;99.90;;;;;;4920659;29;20210;-72
2023/02/18 07:58:57;;;;;;;10.13;1.93;;;6.30;99.90;;;;;;4937640;29;20202;-73
2023/02/18 08:01:24;;;;;;;7.57;1.87;;;6.30;99.90;;;;;;4920501;29;20203;-73
2023/02/18 08:03:51;;;;;;;9.53;1.90;;;6.40;99.90;;;;;;4920420;29;20225;-73
2023/02/18 08:06:26;;;;;;;6.07;1.73;;;6.40;99.90;;;;;;4920441;29;20196;-73
2023/02/18 08:08:53;;;;;;;12.37;2.50;;;6.50;99.90;;;;;;4920723;29;20232;-73
2023/02/18 08:11:20;;;;;;;9.00;1.80;;;6.50;99.90;;;;;;4920249;29;20307;-73
2023/02/18 08:13:48;;;;;;;9.63;1.87;;;6.50;99.90;;;;;;4952001;29;20253;-73
2023/02/18 08:16:20;;;;;;;10.53;2.20;;;6.50;99.90;;;;;;4928977;29;21144;-72
2023/02/18 08:18:48;;;;;;;9.27;2.10;;;6.40;99.90;;;;;;4935360;29;20209;-74
2023/02/18 08:21:17;;;;;;;10.10;2.20;;;6.40;99.90;;;;;;4937527;29;20201;-74
2023/02/18 08:23:44;;;;;;;9.30;2.53;;;6.50;99.90;;;;;;4936077;29;20695;-74
2023/02/18 08:26:12;;;;;;;12.20;2.60;;;6.60;99.90;;;;;;4936354;29;20543;-73
2023/02/18 08:28:39;;;;;;;7.93;1.70;;;6.70;99.90;;;;;;4951581;29;20296;-74
2023/02/18 08:31:06;;;;;;;11.17;2.60;;;6.60;99.90;;;;;;4937231;29;20216;-74
2023/02/18 08:33:33;;;;;;;9.37;2.30;;;6.60;99.90;;;;;;4951842;29;20278;-73
2023/02/18 08:36:00;;;;;;;9.40;2.20;;;6.60;99.90;;;;;;4935835;29;20653;-75
2023/02/18 08:38:27;;;;;;;10.80;2.13;;;6.70;99.90;;;;;;4946971;29;20195;-74
2023/02/18 08:41:04;;;;;;;8.17;1.70;;;6.70;99.90;;;;;;4956423;29;20197;-72
2023/02/18 08:43:32;;;;;;;11.43;2.60;;;6.70;99.90;;;;;;4939029;29;20254;-73
2023/02/18 08:45:59;;;;;;;11.00;2.23;;;6.70;99.90;;;;;;4938630;29;20199;-74
2023/02/18 08:48:26;;;;;;;11.10;1.80;;;6.80;99.90;;;;;;4955769;28;20231;-74
2023/02/18 08:50:53;;;;;;;12.37;2.27;;;6.80;99.90;;;;;;4904608;29;20217;-74
2023/02/18 08:53:21;;;;;;;11.07;2.10;;;6.90;99.90;;;;;;4919902;29;20233;-73
2023/02/18 08:55:47;;;;;;;7.93;2.10;;;6.90;99.90;;;;;;4920145;29;20195;-74
2023/02/18 08:58:16;;;;;;;10.47;1.87;;;7.00;99.90;;;;;;4919563;29;20209;-73
2023/02/18 09:00:44;;;;;;;10.20;2.20;;;6.90;99.90;;;;;;4936827;29;20558;-73
2023/02/18 09:03:14;;;;;;;10.33;2.30;;;7.00;99.90;;;;;;4935371;29;20205;-73
2023/02/18 09:05:41;;;;;;;8.57;2.17;;;6.90;99.90;;;;;;4935195;29;20733;-73
2023/02/18 09:08:08;;;;;;;6.57;1.67;;;6.90;99.90;;;;;;4935515;29;20198;-72
2023/02/18 09:10:35;;;;;;;10.37;2.27;;;6.90;99.90;;;;;;4935196;29;20300;-73
2023/02/18 09:13:03;;;;;;;9.93;2.27;;;7.10;99.90;;;;;;4951308;29;20237;-72
2023/02/18 09:15:31;;;;;;;13.83;2.20;;;7.10;99.90;;;;;;4935198;29;20198;-73
2023/02/18 09:17:58;;;;;;;10.33;2.23;;;7.10;99.90;;;;;;4935023;29;20244;-72
2023/02/18 09:20:26;;;;;;;14.23;1.97;;;6.90;99.90;;;;;;4923667;29;20209;-72
2023/02/18 09:22:53;;;;;;;8.77;2.23;;;6.90;99.90;;;;;;4936482;29;20201;-72
2023/02/18 09:25:20;;;;;;;7.67;2.00;;;6.80;99.90;;;;;;4935828;29;20616;-74
2023/02/18 09:27:47;;;;;;;10.80;2.33;;;6.80;99.90;;;;;;4918923;29;20664;-73
2023/02/18 09:30:14;;;;;;;8.10;2.43;;;6.90;99.90;;;;;;4919085;29;20217;-73
2023/02/18 09:32:41;;;;;;;12.93;2.40;;;6.80;99.90;;;;;;4918837;29;20197;-73
2023/02/18 09:35:08;;;;;;;16.43;2.37;;;7.20;99.90;;;;;;4918787;29;20199;-74
2023/02/18 09:37:35;;;;;;;7.80;2.13;;;7.30;99.90;;;;;;4950767;29;20287;-72
2023/02/18 09:40:02;;;;;;;10.83;2.33;;;7.40;99.90;;;;;;4918639;29;20217;-73
2023/02/18 09:42:33;;;;;;;13.13;2.37;;;7.30;99.90;;;;;;4950982;29;20208;-72
2023/02/18 09:45:04;;;;;;;6.43;1.97;;;7.30;99.90;;;;;;4934263;29;20225;-74
2023/02/18 09:47:38;;;;;;;10.33;1.77;;;7.20;99.90;;;;;;4918717;29;20194;-73
2023/02/18 09:50:20;;;;;;;10.50;2.20;;;7.20;99.90;;;;;;4934463;29;20241;-74
2023/02/18 09:52:47;;;;;;;11.13;2.43;;;7.20;99.90;;;;;;4950765;29;20205;-73
2023/02/18 09:55:18;;;;;;;7.87;2.10;;;7.20;99.90;;;;;;4918621;29;20202;-74
2023/02/18 09:57:54;;;;;;;10.87;2.30;;;7.30;99.90;;;;;;4928188;29;20674;-74
2023/02/18 10:00:32;;;;;;;9.87;2.03;;;7.30;99.90;;;;;;4934176;29;20240;-72
2023/02/18 10:03:16;;;;;;;13.07;2.03;;;7.30;99.90;;;;;;4950341;29;20289;-74
2023/02/18 10:06:14;;;;;;;9.30;2.37;;;7.30;99.90;;;;;;4933988;29;20226;-74
2023/02/18 10:08:47;;;;;;;9.90;2.23;;;7.20;99.90;;;;;;4934444;29;20197;-72
2023/02/18 10:11:20;;;;;;;10.40;2.20;;;7.20;99.90;;;;;;4916354;29;20652;-75
2023/02/18 10:13:48;;;;;;;11.10;2.07;;;7.10;99.90;;;;;;4896101;29;20237;-74
2023/02/18 10:16:17;;;;;;;14.33;2.50;;;7.00;99.90;;;;;;4934070;29;20215;-74
2023/02/18 10:18:48;;;;;;;8.87;1.97;;;7.00;99.90;;;;;;4935186;29;20722;-74
2023/02/18 10:21:25;;;;;;;12.27;1.80;;;7.00;99.90;;;;;;4934048;29;20202;-74
2023/02/18 10:24:01;;;;;;;8.60;1.93;;;7.00;99.90;;;;;;4935478;29;20207;-74
2023/02/18 10:26:32;;;;;;;9.93;1.97;;;7.10;99.90;;;;;;4934124;29;20236;-72
2023/02/18 10:29:00;;;;;;;7.17;2.13;;;7.00;99.90;;;;;;4949942;29;20213;-73
2023/02/18 10:31:32;;;;;;;8.07;2.23;;;7.00;99.90;;;;;;4950018;28;20206;-74
2023/02/18 10:34:12;;;;;;;11.20;2.97;;;7.10;99.90;;;;;;4933422;29;20213;-74
2023/02/18 10:36:45;;;;;;;8.63;2.10;;;7.10;99.90;;;;;;4949792;29;20539;-73
2023/02/18 10:39:40;;;;;;;11.90;2.27;;;7.20;99.90;;;;;;4949977;28;20209;-72
2023/02/18 10:42:13;;;;;;;10.50;2.30;;;7.10;99.90;;;;;;4940551;29;20213;-74
2023/02/18 10:44:59;;;;;;;11.67;2.10;;;7.20;99.90;;;;;;4925593;29;20350;-73
2023/02/18 10:47:35;;;;;;;9.87;2.33;;;7.40;99.90;;;;;;4956104;29;20634;-71
2023/02/18 10:50:14;;;;;;;9.97;2.23;;;7.30;99.90;;;;;;4955892;28;20233;-72
2023/02/18 10:52:44;;;;;;;8.07;2.30;;;7.30;99.90;;;;;;4941500;29;20211;-72
2023/02/18 10:55:17;;;;;;;11.27;2.20;;;7.40;99.90;;;;;;4924361;29;20217;-73
2023/02/18 10:57:50;;;;;;;12.87;2.67;;;7.30;99.90;;;;;;4956162;29;20236;-72
2023/02/18 11:00:26;;;;;;;9.40;2.23;;;7.30;99.90;;;;;;4924104;29;20291;-72
2023/02/18 11:03:21;;;;;;;10.83;2.30;;;7.20;99.90;;;;;;4906420;29;20203;-74
2023/02/18 11:05:53;;;;;;;8.47;2.10;;;7.30;99.90;;;;;;4955340;28;20218;-72
2023/02/18 11:08:29;;;;;;;13.77;2.90;;;7.40;99.90;;;;;;4955749;29;20216;-73
2023/02/18 11:10:56;;;;;;;12.37;2.63;;;7.30;99.90;;;;;;4941338;29;20186;-73
2023/02/18 11:13:27;;;;;;;10.20;2.53;;;7.40;99.90;;;;;;4940067;29;20235;-73
2023/02/18 11:16:00;;;;;;;9.47;2.40;;;7.30;99.90;;;;;;4924667;29;20213;-72
2023/02/18 11:18:39;;;;;;;11.00;2.23;;;7.30;99.90;;;;;;4955915;28;20568;-76
2023/02/18 11:21:22;;;;;;;8.97;2.30;;;7.20;99.90;;;;;;4941522;29;20229;-73
2023/02/18 11:23:52;;;;;;;11.87;2.30;;;7.30;99.90;;;;;;4955807;29;20202;-74
2023/02/18 11:26:34;;;;;;;13.07;3.00;;;7.30;99.90;;;;;;4939843;29;20260;-74
2023/02/18 11:29:14;;;;;;;10.57;2.10;;;7.20;99.90;;;;;;4955745;29;20206;-73
2023/02/18 11:31:48;;;;;;;12.50;2.50;;;7.40;99.90;;;;;;4936452;29;20200;-73
2023/02/18 11:34:22;;;;;;;10.97;2.20;;;7.40;99.90;;;;;;4940766;29;20207;-74
2023/02/18 11:36:50;;;;;;;9.97;2.70;;;7.30;99.90;;;;;;4937584;29;20306;-73
2023/02/18 11:39:27;;;;;;;9.03;2.30;;;7.30;99.90;;;;;;4939955;29;20209;-74
2023/02/18 11:42:03;;;;;;;10.47;2.23;;;7.40;99.90;;;;;;4923741;29;20310;-73
2023/02/18 11:44:34;;;;;;;13.30;2.77;;;7.40;99.90;;;;;;4925086;29;20233;-75
2023/02/18 11:47:11;;;;;;;8.20;2.50;;;7.10;99.90;;;;;;4952284;28;20210;-71
2023/02/18 11:49:43;;;;;;;9.57;2.20;;;7.20;99.90;;;;;;4933097;29;20733;-71
2023/02/18 11:52:37;;;;;;;12.50;2.40;;;7.20;99.90;;;;;;4928822;29;20651;-73
2023/02/18 11:55:05;;;;;;;11.07;2.80;;;7.30;99.90;;;;;;4920590;29;20194;-76
2023/02/18 11:57:38;;;;;;;9.53;2.37;;;7.50;99.90;;;;;;4920901;29;20720;-74
2023/02/18 12:00:22;;;;;;;12.13;2.57;;;7.40;99.90;;;;;;4937819;29;20191;-75
2023/02/18 12:02:53;;;;;;;9.30;2.23;;;7.60;99.90;;;;;;4920596;29;20206;-74
2023/02/18 12:05:23;;;;;;;12.53;2.80;;;7.90;99.90;;;;;;4937729;29;20245;-74
2023/02/18 12:08:23;;;;;;;8.00;2.27;;;7.90;99.90;;;;;;4938092;29;20563;-73
2023/02/18 12:10:55;;;;;;;13.33;2.93;;;7.90;99.90;;;;;;4931322;29;20209;-74
2023/02/18 12:13:52;;;;;;;10.30;2.47;;;7.80;99.90;;;;;;4934406;29;20210;-74
2023/02/18 12:16:43;;;;;;;9.97;2.57;;;7.70;99.90;;;;;;4916627;29;20205;-74
2023/02/18 12:19:48;;;;;;;12.27;2.73;;;7.60;99.90;;;;;;4935835;29;20211;-74
2023/02/18 12:22:38;;;;;;;11.10;2.70;;;7.80;99.90;;;;;;4936133;29;20293;-75
2023/02/18 12:25:22;;;;;;;16.47;3.10;;;7.80;99.90;;;;;;4838911;29;20309;-75
2023/02/18 12:27:52;;;;;;;10.37;2.57;;;7.90;99.90;;;;;;4854114;23;20221;-75
2023/02/18 12:30:41;;;;;;;7.63;2.63;;;7.60;99.90;;;;;;4990878;28;20625;-79
2023/02/18 12:37:05;;;;;;;14.20;2.60;;;7.70;99.90;;;;;;4941939;28;20213;-77
2023/02/18 12:39:53;;;;;;;10.30;2.13;;;7.50;99.90;;;;;;4938436;29;20671;-81
2023/02/18 12:42:41;;;;;;;9.37;2.40;;;7.40;99.90;;;;;;4958169;29;20203;-85
2023/02/18 12:45:43;;;;;;;10.43;2.20;;;7.40;99.90;;;;;;4943991;29;20237;-78
2023/02/18 12:48:54;;;;;;;14.53;2.77;;;7.50;99.90;;;;;;4954830;28;20696;-77
2023/02/18 12:52:08;;;;;;;12.73;2.40;;;7.50;99.90;;;;;;4899434;29;20227;-78
2023/02/18 12:55:11;;;;;;;8.27;2.20;;;7.50;99.90;;;;;;4847267;29;20248;-77
2023/02/18 12:57:43;;;;;;;8.40;2.77;;;7.40;99.90;;;;;;4838625;29;20217;-79
2023/02/18 13:00:34;;;;;;;10.80;2.40;;;7.40;99.90;;;;;;4826460;29;20220;-73
2023/02/18 13:03:07;;;;;;;9.67;2.50;;;7.50;99.90;;;;;;4825379;29;20656;-77
2023/02/18 13:05:43;;;;;;;12.93;2.57;;;7.80;99.90;;;;;;4839982;29;20237;-74
2023/02/18 13:08:23;;;;;;;9.00;2.77;;;8.10;99.90;;;;;;4827199;29;20206;-73
2023/02/18 13:11:08;;;;;;;11.37;2.80;;;8.10;99.90;;;;;;4839182;29;20212;-73
2023/02/18 13:13:53;;;;;;;10.00;2.43;;;8.10;99.90;;;;;;4859504;29;20221;-74
2023/02/18 13:16:22;;;;;;;11.73;2.53;;;7.90;99.90;;;;;;4891453;29;20738;-72
2023/02/18 13:19:00;;;;;;;12.03;2.50;;;7.90;99.90;;;;;;4897461;29;20212;-73
2023/02/18 13:21:28;;;;;;;7.43;2.30;;;7.90;99.90;;;;;;4895159;29;20230;-75
2023/02/18 13:24:09;;;;;;;16.13;2.80;;;7.80;99.90;;;;;;4925956;28;20211;-77
2023/02/18 13:26:38;;;;;;;10.93;2.30;;;7.50;99.90;;;;;;4930250;29;20232;-79